Time;durP1;ratioP1;P1;durP2;ratioP2;P2;SDS_P1;SDS_P2;PMS_P1;PMS_P2;Temp;Humidity;BMP_temperature;BMP_pressure;BME280_temperature;BME280_humidity;BME280_pressure;Samples;Min_cycle;Max_cycle;Signal;HPM_P1;HPM_P2
2022/01/16 00:00:48;;;;;;;167.48;130.52;;;2.90;99.60;;;;;;5022698;28;19934;-84
2022/01/16 00:06:01;;;;;;;165.23;126.80;;;2.80;99.70;;;;;;5005856;28;20575;-83
2022/01/16 00:08:28;;;;;;;165.68;128.23;;;2.80;99.70;;;;;;5006095;28;20153;-83
2022/01/16 00:10:55;;;;;;;165.90;127.87;;;2.70;99.70;;;;;;5005718;28;20133;-83
2022/01/16 00:13:23;;;;;;;165.33;129.50;;;2.70;99.70;;;;;;5005642;28;20364;-83
2022/01/16 00:15:50;;;;;;;167.95;130.02;;;2.70;99.90;;;;;;5005748;28;20046;-84
2022/01/16 00:18:22;;;;;;;169.27;129.15;;;2.70;99.90;;;;;;5005887;28;20129;-83
2022/01/16 00:20:50;;;;;;;169.18;129.40;;;2.70;99.90;;;;;;5022342;28;20046;-82
2022/01/16 00:23:24;;;;;;;167.50;129.77;;;2.70;99.90;;;;;;5022052;28;20054;-83
2022/01/16 00:25:52;;;;;;;161.80;128.07;;;2.60;99.90;;;;;;5022252;28;20570;-83
2022/01/16 00:28:20;;;;;;;167.20;129.10;;;2.70;99.90;;;;;;5021946;28;20145;-84
2022/01/16 00:30:47;;;;;;;160.05;125.78;;;2.60;99.80;;;;;;5021970;28;20061;-83
2022/01/16 00:33:15;;;;;;;158.32;124.47;;;2.60;99.90;;;;;;5005957;28;20144;-83
2022/01/16 00:35:42;;;;;;;156.45;124.20;;;2.60;99.80;;;;;;5021659;28;20120;-83
2022/01/16 00:38:10;;;;;;;155.60;125.13;;;2.60;99.90;;;;;;5021831;28;20050;-83
2022/01/16 00:40:38;;;;;;;;;;;2.50;99.80;;;;;;5022326;28;20141;-83
2022/01/16 00:43:06;;;;;;;160.30;124.82;;;2.50;99.90;;;;;;5005656;28;20327;-83
2022/01/16 00:45:34;;;;;;;161.30;125.65;;;2.40;99.90;;;;;;5021537;28;20083;-84
2022/01/16 00:48:03;;;;;;;172.30;130.68;;;2.40;99.90;;;;;;5017316;28;20087;-83
2022/01/16 00:50:30;;;;;;;165.50;124.63;;;2.40;99.90;;;;;;5018441;28;20058;-83
2022/01/16 00:52:57;;;;;;;165.18;129.38;;;2.40;99.90;;;;;;5018850;28;20088;-83
2022/01/16 00:55:24;;;;;;;156.27;122.55;;;2.40;99.90;;;;;;5001975;28;20054;-82
2022/01/16 00:57:53;;;;;;;163.52;127.75;;;2.40;99.80;;;;;;5001759;28;20046;-83
2022/01/16 01:00:20;;;;;;;167.60;128.02;;;2.40;99.80;;;;;;5002397;28;20060;-83
2022/01/16 01:02:47;;;;;;;164.60;122.65;;;2.30;99.90;;;;;;5018584;28;20145;-83
2022/01/16 01:05:14;;;;;;;168.93;126.03;;;2.30;99.90;;;;;;5018843;28;20070;-83
2022/01/16 01:07:41;;;;;;;166.63;125.85;;;2.30;99.90;;;;;;5018179;28;20056;-81
2022/01/16 01:10:10;;;;;;;169.57;126.90;;;2.30;99.90;;;;;;5018626;28;20046;-83
2022/01/16 01:12:52;;;;;;;169.32;126.63;;;2.30;99.90;;;;;;5018167;28;20056;-83
2022/01/16 01:15:25;;;;;;;175.07;129.77;;;2.30;99.90;;;;;;5001886;28;20151;-83
2022/01/16 01:17:53;;;;;;;169.48;125.45;;;2.30;99.90;;;;;;5017907;28;20061;-83
2022/01/16 01:20:23;;;;;;;171.23;127.03;;;2.30;99.90;;;;;;5009981;28;20133;-83
2022/01/16 01:22:53;;;;;;;179.73;129.88;;;2.30;99.90;;;;;;5018109;28;20058;-82
2022/01/16 01:25:22;;;;;;;178.73;129.38;;;2.30;99.90;;;;;;5001847;28;20081;-83
2022/01/16 01:27:49;;;;;;;183.60;132.55;;;2.30;99.90;;;;;;5001492;28;20663;-83
2022/01/16 01:30:18;;;;;;;181.10;132.07;;;2.30;99.90;;;;;;5001550;28;20133;-83
2022/01/16 01:32:49;;;;;;;188.63;136.30;;;2.30;99.90;;;;;;5018257;28;20273;-83
2022/01/16 01:35:18;;;;;;;197.13;134.07;;;2.40;99.90;;;;;;5001256;28;20077;-82
2022/01/16 01:37:45;;;;;;;188.52;131.82;;;2.40;99.90;;;;;;5001442;28;20136;-82
2022/01/16 01:40:15;;;;;;;190.80;135.63;;;2.30;99.90;;;;;;5001606;28;20076;-83
2022/01/16 01:42:46;;;;;;;185.32;131.07;;;2.40;99.90;;;;;;5001484;28;20076;-83
2022/01/16 01:51:06;;;;;;;195.52;131.43;;;2.40;99.90;;;;;;5001489;28;20115;-83
2022/01/16 01:53:34;;;;;;;200.77;134.35;;;2.40;99.90;;;;;;5017921;28;20058;-83
2022/01/16 01:56:02;;;;;;;201.10;136.13;;;2.40;99.90;;;;;;5017531;28;20145;-82
2022/01/16 01:58:29;;;;;;;220.98;141.77;;;2.40;99.90;;;;;;5000430;28;20538;-83
2022/01/16 02:00:57;;;;;;;207.82;133.02;;;2.40;99.90;;;;;;5000788;28;20061;-83
2022/01/16 02:03:31;;;;;;;209.63;138.20;;;2.50;99.90;;;;;;5017498;28;20050;-83
2022/01/16 02:05:58;;;;;;;202.13;134.50;;;2.50;99.90;;;;;;5001066;28;20050;-83
2022/01/16 02:08:26;;;;;;;208.10;141.95;;;2.50;99.90;;;;;;5001018;28;20061;-83
2022/01/16 02:10:55;;;;;;;202.57;134.60;;;2.50;99.90;;;;;;5000744;28;20052;-83
2022/01/16 02:13:27;;;;;;;187.55;130.15;;;2.50;99.90;;;;;;5009568;28;20057;-83
2022/01/16 02:32:59;;;;;;;216.45;135.05;;;2.60;99.90;;;;;;5016949;28;20042;-84
2022/01/16 02:35:25;;;;;;;195.35;132.15;;;2.60;99.90;;;;;;5000427;28;20050;-83
2022/01/16 02:37:52;;;;;;;228.40;138.35;;;2.70;99.90;;;;;;5016894;28;20046;-83
2022/01/16 02:40:25;;;;;;;253.65;140.95;;;2.70;99.90;;;;;;5000619;28;20054;-83
2022/01/16 02:42:52;;;;;;;207.13;134.38;;;2.60;99.90;;;;;;5000430;28;20046;-83
2022/01/16 02:45:31;;;;;;;;;;;2.60;99.90;;;;;;5017426;28;20054;-83
2022/01/16 02:48:00;;;;;;;232.70;133.98;;;2.60;99.90;;;;;;5033456;28;19929;-83
2022/01/16 02:50:27;;;;;;;226.90;135.23;;;2.70;99.90;;;;;;5000423;28;20092;-83
2022/01/16 02:52:55;;;;;;;245.48;141.73;;;2.70;99.90;;;;;;5017181;28;20065;-83
2022/01/16 02:55:24;;;;;;;275.75;144.52;;;2.60;99.90;;;;;;5016557;28;20092;-83
2022/01/16 02:57:53;;;;;;;248.73;135.88;;;2.70;99.90;;;;;;5016417;28;20057;-83
2022/01/16 03:00:23;;;;;;;266.23;141.50;;;2.70;99.90;;;;;;4999869;28;20497;-82
2022/01/16 03:02:51;;;;;;;270.77;137.82;;;2.70;99.90;;;;;;5000282;28;20052;-83
2022/01/16 03:05:18;;;;;;;254.77;137.10;;;2.70;99.90;;;;;;5000126;28;20058;-82
2022/01/16 03:07:45;;;;;;;230.02;135.75;;;2.70;99.90;;;;;;5000020;28;20177;-83
2022/01/16 03:10:36;;;;;;;224.77;133.98;;;2.70;99.90;;;;;;4999502;28;20054;-82
2022/01/16 03:13:05;;;;;;;279.88;138.77;;;2.70;99.90;;;;;;5016437;28;20100;-83
2022/01/16 03:15:32;;;;;;;245.90;138.30;;;2.70;99.90;;;;;;4999835;28;20062;-83
2022/01/16 03:23:29;;;;;;;229.77;135.60;;;2.70;99.90;;;;;;5000119;28;20055;-83
2022/01/16 03:25:56;;;;;;;262.00;134.70;;;2.80;99.90;;;;;;5016433;28;20074;-83
2022/01/16 03:28:26;;;;;;;247.68;136.90;;;2.70;99.90;;;;;;4999820;28;20049;-82
2022/01/16 03:30:53;;;;;;;232.93;135.82;;;2.80;99.90;;;;;;5016529;28;20061;-83
2022/01/16 03:33:21;;;;;;;230.32;136.10;;;2.80;99.90;;;;;;4999714;28;20589;-83
2022/01/16 03:35:48;;;;;;;;;;;2.80;99.90;;;;;;5016531;28;20109;-82
2022/01/16 03:38:16;;;;;;;231.05;136.38;;;2.80;99.90;;;;;;5016476;28;19925;-83
2022/01/16 03:40:43;;;;;;;239.82;137.80;;;2.80;99.90;;;;;;5016261;28;20151;-83
2022/01/16 03:43:14;;;;;;;234.02;137.38;;;2.80;99.90;;;;;;4999519;28;20845;-83
2022/01/16 03:45:45;;;;;;;225.00;133.10;;;2.80;99.90;;;;;;5016466;28;20061;-83
2022/01/16 03:48:13;;;;;;;229.48;134.25;;;2.80;99.90;;;;;;5015894;28;20547;-82
2022/01/16 03:50:40;;;;;;;242.38;140.35;;;2.90;99.90;;;;;;4999644;28;20046;-83
2022/01/16 03:53:07;;;;;;;244.40;142.07;;;2.90;99.90;;;;;;5002210;28;20073;-83
2022/01/16 03:55:35;;;;;;;220.10;132.88;;;2.90;99.90;;;;;;4999702;28;20682;-82
2022/01/16 03:58:01;;;;;;;223.20;131.38;;;2.90;99.90;;;;;;5015697;28;20058;-82
2022/01/16 04:00:28;;;;;;;225.63;134.65;;;2.90;99.90;;;;;;5015943;28;20062;-82
2022/01/16 04:02:57;;;;;;;227.55;139.38;;;2.90;99.90;;;;;;5015599;28;20081;-83
2022/01/16 04:05:24;;;;;;;220.65;133.35;;;2.90;99.90;;;;;;5015669;28;20152;-82
2022/01/16 04:07:51;;;;;;;242.43;139.63;;;2.90;99.90;;;;;;5015980;28;20777;-83
2022/01/16 04:10:21;;;;;;;244.68;136.18;;;3.00;99.90;;;;;;5015154;28;20504;-83
2022/01/16 04:12:48;;;;;;;231.93;133.38;;;3.00;99.90;;;;;;4999093;28;20845;-83
2022/01/16 04:15:33;;;;;;;239.35;136.57;;;3.00;99.90;;;;;;5014777;28;20148;-83
2022/01/16 04:18:05;;;;;;;238.15;140.10;;;3.00;99.90;;;;;;5031957;28;20500;-82
2022/01/16 04:20:33;;;;;;;220.85;132.98;;;3.00;99.90;;;;;;4999566;28;20061;-83
2022/01/16 04:23:01;;;;;;;228.40;134.60;;;3.00;99.90;;;;;;5000713;28;20050;-83
2022/01/16 04:25:28;;;;;;;207.77;133.85;;;3.00;99.90;;;;;;5018969;28;20058;-83
2022/01/16 04:27:55;;;;;;;234.27;137.55;;;3.00;99.90;;;;;;5018786;28;20058;-82
2022/01/16 04:30:23;;;;;;;230.10;134.13;;;3.00;99.90;;;;;;5002827;28;20493;-82
2022/01/16 04:32:50;;;;;;;224.90;135.00;;;3.10;99.90;;;;;;5019153;28;20452;-83
2022/01/16 04:35:19;;;;;;;237.93;136.48;;;3.10;99.90;;;;;;5035402;28;20065;-83
2022/01/16 04:37:46;;;;;;;244.02;139.27;;;3.10;99.90;;;;;;5018808;28;20132;-83
2022/01/16 04:40:14;;;;;;;246.95;139.82;;;3.10;99.90;;;;;;5002456;28;20050;-82
2022/01/16 04:45:27;;;;;;;250.15;140.73;;;3.20;99.90;;;;;;5002470;28;20076;-83
2022/01/16 04:47:55;;;;;;;233.13;136.80;;;3.20;99.90;;;;;;5018354;28;20058;-83
2022/01/16 04:50:25;;;;;;;232.38;134.35;;;3.20;99.90;;;;;;5002393;28;20054;-82
2022/01/16 04:52:53;;;;;;;239.93;139.93;;;3.20;99.90;;;;;;5018760;28;20054;-83
2022/01/16 04:55:23;;;;;;;240.55;136.50;;;3.30;99.90;;;;;;5010281;28;20054;-82
2022/01/16 04:57:51;;;;;;;240.10;138.35;;;3.30;99.90;;;;;;5018485;28;20143;-82
2022/01/16 05:00:18;;;;;;;228.85;135.70;;;3.30;99.90;;;;;;5018606;28;20057;-83
2022/01/16 05:02:46;;;;;;;231.43;140.85;;;3.30;99.90;;;;;;5002022;28;20042;-83
2022/01/16 05:05:13;;;;;;;232.35;137.45;;;3.30;99.90;;;;;;5001790;28;20523;-83
2022/01/16 05:07:42;;;;;;;;;;;3.30;99.90;;;;;;5002122;28;20049;-82
2022/01/16 05:10:10;;;;;;;215.07;132.57;;;3.40;99.90;;;;;;5035235;28;19972;-82
2022/01/16 05:12:40;;;;;;;226.38;138.43;;;3.40;99.90;;;;;;5036078;28;20050;-83
2022/01/16 05:17:53;;;;;;;219.40;136.52;;;3.40;99.90;;;;;;5018082;28;20054;-83
2022/01/16 05:20:20;;;;;;;228.80;137.68;;;3.40;99.90;;;;;;5001845;28;20056;-83
2022/01/16 05:22:50;;;;;;;218.32;135.32;;;3.40;99.90;;;;;;5018507;28;20050;-83
2022/01/16 05:25:18;;;;;;;227.20;139.85;;;3.40;99.90;;;;;;5018265;28;20053;-83
2022/01/16 05:27:46;;;;;;;225.38;135.13;;;3.40;99.90;;;;;;5001499;28;20080;-83
2022/01/16 05:30:13;;;;;;;222.70;135.70;;;3.40;99.90;;;;;;5018300;28;20056;-83
2022/01/16 05:32:41;;;;;;;214.85;135.23;;;3.50;99.90;;;;;;5017892;28;20507;-83
2022/01/16 05:35:09;;;;;;;205.68;134.27;;;3.50;99.90;;;;;;5001201;28;20053;-82
2022/01/16 05:37:38;;;;;;;221.48;136.85;;;3.50;99.90;;;;;;5017799;28;20060;-82
2022/01/16 05:40:07;;;;;;;208.73;133.05;;;3.50;99.90;;;;;;5017406;28;20129;-83
2022/01/16 05:42:35;;;;;;;210.43;132.57;;;3.50;99.90;;;;;;5001414;28;20057;-83
2022/01/16 05:45:02;;;;;;;235.52;142.73;;;3.50;99.90;;;;;;5017651;28;20046;-83
2022/01/16 05:47:29;;;;;;;216.00;136.80;;;3.50;99.90;;;;;;5001084;28;20050;-83
2022/01/16 05:49:56;;;;;;;205.15;133.40;;;3.60;99.90;;;;;;5001627;28;20136;-83
2022/01/16 05:52:23;;;;;;;215.00;133.55;;;3.50;99.90;;;;;;5017978;28;20141;-83
2022/01/16 05:54:50;;;;;;;219.55;139.88;;;3.50;99.90;;;;;;5001746;28;20058;-83
2022/01/16 05:57:19;;;;;;;223.00;141.65;;;3.60;99.90;;;;;;5000818;28;20060;-83
2022/01/16 05:59:46;;;;;;;218.00;137.88;;;3.60;99.90;;;;;;5017564;28;20058;-82
2022/01/16 06:02:13;;;;;;;223.95;140.23;;;3.60;99.90;;;;;;5017463;28;20057;-83
2022/01/16 06:04:40;;;;;;;;;;;3.60;99.90;;;;;;5017893;28;20057;-83
2022/01/16 06:07:07;;;;;;;215.88;134.05;;;3.60;99.90;;;;;;5001279;28;19925;-83
2022/01/16 06:09:34;;;;;;;214.95;137.63;;;3.60;99.90;;;;;;5017506;28;20054;-83
2022/01/16 06:12:01;;;;;;;218.40;138.85;;;3.70;99.90;;;;;;5017438;28;20045;-82
2022/01/16 06:14:29;;;;;;;232.70;143.90;;;3.60;99.90;;;;;;5017331;28;20054;-83
2022/01/16 06:16:57;;;;;;;217.35;136.95;;;3.70;99.90;;;;;;5000841;28;20126;-82
2022/01/16 06:19:24;;;;;;;218.10;134.23;;;3.70;99.90;;;;;;5000978;28;20066;-82
2022/01/16 06:21:51;;;;;;;230.65;139.30;;;3.70;99.90;;;;;;5000291;28;20143;-83
2022/01/16 06:24:18;;;;;;;249.77;141.13;;;3.70;99.90;;;;;;5000775;28;20500;-82
2022/01/16 06:26:45;;;;;;;237.07;137.82;;;3.70;99.90;;;;;;5000679;28;20045;-83
2022/01/16 06:29:12;;;;;;;230.77;137.98;;;3.70;99.90;;;;;;5017048;28;20133;-82
2022/01/16 06:31:41;;;;;;;243.32;142.57;;;3.80;99.90;;;;;;5000735;28;20046;-84
2022/01/16 06:34:09;;;;;;;227.00;137.00;;;3.80;99.90;;;;;;5000495;28;20050;-83
2022/01/16 06:36:37;;;;;;;;;;;3.80;99.90;;;;;;5017214;28;20054;-83
2022/01/16 06:39:05;;;;;;;217.60;133.30;;;3.80;99.90;;;;;;5050818;28;19984;-83
2022/01/16 06:41:32;;;;;;;228.50;139.35;;;3.80;99.90;;;;;;5016656;28;20050;-83
2022/01/16 06:44:00;;;;;;;230.23;140.93;;;3.90;99.90;;;;;;5016737;28;20058;-83
2022/01/16 06:46:28;;;;;;;234.00;139.18;;;3.90;99.90;;;;;;4999933;28;20137;-82
2022/01/16 06:48:56;;;;;;;238.45;143.43;;;3.90;99.90;;;;;;5016215;28;20057;-83
2022/01/16 06:51:24;;;;;;;241.68;146.18;;;3.90;99.90;;;;;;5016794;28;20142;-84
2022/01/16 06:53:53;;;;;;;239.93;140.93;;;3.90;99.90;;;;;;5016611;28;20801;-83
2022/01/16 06:56:21;;;;;;;231.68;139.27;;;3.90;99.90;;;;;;5000623;28;20050;-83
2022/01/16 06:58:48;;;;;;;237.48;142.43;;;3.90;99.90;;;;;;4999939;28;20465;-83
2022/01/16 07:01:15;;;;;;;229.60;140.13;;;3.90;99.90;;;;;;5016468;28;20506;-83
2022/01/16 07:03:43;;;;;;;236.27;139.60;;;3.90;99.90;;;;;;5000372;28;20146;-83
2022/01/16 07:06:11;;;;;;;236.07;140.27;;;3.90;99.90;;;;;;5016175;28;20057;-82
2022/01/16 07:08:38;;;;;;;217.73;137.20;;;3.90;99.90;;;;;;5000159;28;20132;-83
2022/01/16 07:11:05;;;;;;;231.52;138.85;;;4.00;99.90;;;;;;5016404;28;20486;-84
2022/01/16 07:13:32;;;;;;;230.98;140.95;;;4.00;99.90;;;;;;5000304;28;20049;-83
2022/01/16 07:15:59;;;;;;;225.35;140.90;;;4.00;99.90;;;;;;5016321;28;20053;-83
2022/01/16 07:18:27;;;;;;;234.32;141.40;;;4.00;99.90;;;;;;5016113;28;20100;-84
2022/01/16 07:20:55;;;;;;;231.80;143.45;;;4.10;99.90;;;;;;4999932;28;20049;-83
2022/01/16 07:23:24;;;;;;;238.32;143.07;;;4.10;99.90;;;;;;5000066;28;20133;-84
2022/01/16 07:25:52;;;;;;;233.20;142.68;;;4.10;99.90;;;;;;5016162;28;20058;-83
2022/01/16 07:28:19;;;;;;;223.82;139.63;;;4.10;99.90;;;;;;5015730;28;20112;-83
2022/01/16 07:30:47;;;;;;;240.30;147.57;;;4.20;99.90;;;;;;5016211;28;20504;-83
2022/01/16 07:33:14;;;;;;;222.60;142.35;;;4.20;99.90;;;;;;4999847;28;20140;-84
2022/01/16 07:35:41;;;;;;;221.27;142.45;;;4.20;99.90;;;;;;5015884;28;20530;-82
2022/01/16 07:38:09;;;;;;;230.30;141.43;;;4.20;99.90;;;;;;5016035;28;20489;-83
2022/01/16 07:40:38;;;;;;;228.35;143.10;;;4.20;99.90;;;;;;4999544;28;20498;-84
2022/01/16 07:43:05;;;;;;;224.75;143.18;;;4.30;99.90;;;;;;5016194;28;20123;-83
2022/01/16 07:45:32;;;;;;;222.68;139.85;;;4.30;99.90;;;;;;4999749;28;20426;-84
2022/01/16 07:47:59;;;;;;;227.73;142.57;;;4.30;99.90;;;;;;5015977;28;20058;-84
2022/01/16 07:50:27;;;;;;;230.65;146.30;;;4.40;99.90;;;;;;4999734;28;20149;-83
2022/01/16 07:52:54;;;;;;;214.07;140.35;;;4.40;99.90;;;;;;4999387;28;20054;-83
2022/01/16 07:55:24;;;;;;;222.75;141.50;;;4.40;99.90;;;;;;4999518;28;20170;-83
2022/01/16 07:57:53;;;;;;;218.85;144.10;;;4.50;99.90;;;;;;5001789;28;20089;-84
2022/01/16 08:00:21;;;;;;;222.93;143.95;;;4.50;99.90;;;;;;5019257;28;20054;-83
2022/01/16 08:02:50;;;;;;;209.40;139.05;;;4.50;99.90;;;;;;5019074;28;20100;-84
2022/01/16 08:05:17;;;;;;;225.52;147.50;;;4.60;99.90;;;;;;5019249;28;20050;-83
2022/01/16 08:07:44;;;;;;;;;;;4.60;99.90;;;;;;5019824;28;20102;-83
2022/01/16 08:14:14;;;;;;;220.07;143.95;;;4.70;99.90;;;;;;5018890;28;20133;-84
2022/01/16 08:16:41;;;;;;;209.13;141.80;;;4.70;99.90;;;;;;5002618;28;20555;-83
2022/01/16 08:19:08;;;;;;;214.55;141.77;;;4.80;99.90;;;;;;5018920;28;20506;-83
2022/01/16 08:21:35;;;;;;;225.90;141.68;;;4.80;99.90;;;;;;5019115;28;20508;-83
2022/01/16 08:24:04;;;;;;;215.32;143.43;;;4.80;99.90;;;;;;5002699;28;20133;-84
2022/01/16 08:26:31;;;;;;;210.15;142.93;;;4.90;99.90;;;;;;5019238;28;20112;-84
2022/01/16 08:28:58;;;;;;;229.30;155.57;;;4.90;99.90;;;;;;5019043;28;20062;-83
2022/01/16 08:31:36;;;;;;;212.10;140.60;;;4.90;99.90;;;;;;5003965;28;20056;-84
2022/01/16 08:34:03;;;;;;;212.77;144.15;;;4.90;99.90;;;;;;5002665;28;20145;-82
2022/01/16 08:36:30;;;;;;;200.65;138.90;;;5.00;99.90;;;;;;5019107;28;20129;-83
2022/01/16 08:38:57;;;;;;;212.60;146.40;;;5.00;99.90;;;;;;5002508;28;20046;-83
2022/01/16 08:41:25;;;;;;;201.40;144.48;;;5.00;99.90;;;;;;5018524;28;20053;-83
2022/01/16 08:43:53;;;;;;;196.05;140.82;;;5.00;99.90;;;;;;5018921;28;20128;-83
2022/01/16 08:46:21;;;;;;;198.38;141.75;;;5.00;99.90;;;;;;5017800;28;20074;-83
2022/01/16 08:48:49;;;;;;;195.85;140.93;;;5.00;99.90;;;;;;5018005;28;20057;-83
2022/01/16 08:51:19;;;;;;;189.52;138.18;;;5.10;99.90;;;;;;5007026;28;20607;-86
2022/01/16 08:53:55;;;;;;;195.77;141.02;;;5.10;99.90;;;;;;5023677;28;20471;-86
2022/01/16 08:56:22;;;;;;;194.77;141.93;;;5.10;99.90;;;;;;4998678;28;20050;-85
2022/01/16 08:58:49;;;;;;;195.30;142.10;;;5.20;99.90;;;;;;5010501;28;20054;-83
2022/01/16 09:01:16;;;;;;;190.05;141.88;;;5.10;99.90;;;;;;5018439;28;20144;-82
2022/01/16 09:03:43;;;;;;;184.70;136.68;;;5.20;99.90;;;;;;4988122;28;20069;-83
2022/01/16 09:06:11;;;;;;;179.30;137.20;;;5.20;99.90;;;;;;5009360;28;20069;-83
2022/01/16 09:08:39;;;;;;;189.25;138.70;;;5.20;99.90;;;;;;4988469;28;20060;-84
2022/01/16 09:11:07;;;;;;;182.48;138.60;;;5.20;99.90;;;;;;5013560;28;20533;-84
2022/01/16 09:13:34;;;;;;;193.48;144.07;;;5.30;99.90;;;;;;5008011;28;20061;-83
2022/01/16 09:16:01;;;;;;;178.65;136.38;;;5.30;99.90;;;;;;4993836;28;20057;-84
2022/01/16 09:18:28;;;;;;;;;;;5.30;99.90;;;;;;4993023;28;20077;-83
2022/01/16 09:20:56;;;;;;;173.73;135.32;;;5.40;99.90;;;;;;5041775;28;19965;-85
2022/01/16 09:23:25;;;;;;;170.40;132.57;;;5.40;99.90;;;;;;5018370;28;20064;-85
2022/01/16 09:25:52;;;;;;;171.10;136.63;;;5.40;99.90;;;;;;5009581;28;20050;-84
2022/01/16 09:28:19;;;;;;;170.88;135.00;;;5.50;99.90;;;;;;5015018;28;20542;-84
2022/01/16 09:30:46;;;;;;;168.13;135.30;;;5.50;99.90;;;;;;5018111;28;20150;-85
2022/01/16 09:33:15;;;;;;;176.23;140.02;;;5.60;99.90;;;;;;5017967;28;20168;-85
2022/01/16 09:35:42;;;;;;;173.82;142.15;;;5.60;99.90;;;;;;5001304;28;20042;-83
2022/01/16 09:38:09;;;;;;;168.30;135.77;;;5.60;99.90;;;;;;5017965;28;20937;-87
2022/01/16 09:40:38;;;;;;;165.38;135.45;;;5.70;99.90;;;;;;5001468;28;20132;-85
2022/01/16 09:43:05;;;;;;;168.13;135.45;;;5.70;99.90;;;;;;5017994;28;20050;-83
2022/01/16 09:45:32;;;;;;;165.77;138.15;;;5.70;99.90;;;;;;5018091;28;20200;-83
2022/01/16 09:48:00;;;;;;;162.68;133.13;;;5.70;99.90;;;;;;5017456;28;20057;-82
2022/01/16 09:50:27;;;;;;;160.65;132.68;;;5.80;99.90;;;;;;5009025;28;20077;-84
2022/01/16 09:52:55;;;;;;;159.35;132.85;;;5.80;99.90;;;;;;5010433;28;20138;-82
2022/01/16 09:55:23;;;;;;;159.45;134.15;;;5.80;99.90;;;;;;5009534;28;20050;-85
2022/01/16 09:57:52;;;;;;;158.85;131.77;;;5.80;99.90;;;;;;5025438;28;20068;-83
2022/01/16 10:00:21;;;;;;;160.02;135.25;;;5.90;99.90;;;;;;4998072;28;20061;-84
2022/01/16 10:02:49;;;;;;;161.18;134.93;;;5.90;99.90;;;;;;5026811;28;20050;-83
2022/01/16 10:05:28;;;;;;;157.15;130.50;;;5.90;99.90;;;;;;5007471;28;20057;-82
2022/01/16 10:07:57;;;;;;;154.48;132.10;;;5.90;99.90;;;;;;5016907;28;20124;-82
2022/01/16 10:10:29;;;;;;;152.90;131.63;;;5.90;99.90;;;;;;5000601;28;20094;-82
2022/01/16 10:13:05;;;;;;;154.82;131.90;;;5.90;99.90;;;;;;4996842;28;20061;-83
2022/01/16 10:15:33;;;;;;;154.10;129.95;;;5.90;99.90;;;;;;5016533;28;20140;-84
2022/01/16 10:18:04;;;;;;;146.60;130.15;;;6.00;99.90;;;;;;5033623;28;20136;-82
2022/01/16 10:20:42;;;;;;;157.40;133.80;;;6.00;99.90;;;;;;4998967;28;20054;-86
2022/01/16 10:23:17;;;;;;;149.32;130.88;;;6.00;99.90;;;;;;5000665;28;20141;-86
2022/01/16 10:25:47;;;;;;;155.00;132.73;;;6.00;99.90;;;;;;5016905;28;20120;-85
2022/01/16 10:28:18;;;;;;;144.30;127.40;;;6.00;99.90;;;;;;5017031;28;20137;-87
2022/01/16 10:30:47;;;;;;;147.27;131.10;;;6.00;99.90;;;;;;5015130;28;20050;-84
2022/01/16 10:33:16;;;;;;;151.65;130.13;;;6.00;99.90;;;;;;4999466;28;20061;-85
2022/01/16 10:35:47;;;;;;;143.80;127.15;;;6.10;99.90;;;;;;5000013;28;20112;-84
2022/01/16 10:38:18;;;;;;;146.27;129.88;;;6.10;99.90;;;;;;5049561;28;20058;-85
2022/01/16 10:40:50;;;;;;;143.30;125.68;;;6.10;99.90;;;;;;4999816;28;20137;-86
2022/01/16 10:43:21;;;;;;;145.43;129.15;;;6.10;99.90;;;;;;4999883;28;20064;-85
2022/01/16 10:45:51;;;;;;;144.32;127.13;;;6.10;99.90;;;;;;5032945;28;20085;-84
2022/01/16 10:48:24;;;;;;;137.27;122.25;;;6.20;99.90;;;;;;5049530;28;20112;-86
2022/01/16 10:50:52;;;;;;;137.80;122.68;;;6.20;99.90;;;;;;5000055;28;20050;-86
2022/01/16 10:53:23;;;;;;;138.35;121.68;;;6.20;99.90;;;;;;4999812;28;20503;-83
2022/01/16 10:55:52;;;;;;;139.55;124.35;;;6.20;99.90;;;;;;4998482;28;20050;-86
2022/01/16 10:58:24;;;;;;;139.30;121.88;;;6.20;99.90;;;;;;4999614;28;20100;-85
2022/01/16 11:00:54;;;;;;;136.20;121.65;;;6.30;99.90;;;;;;5000075;28;20050;-86
2022/01/16 11:03:23;;;;;;;137.63;122.72;;;6.30;99.90;;;;;;5016406;28;20530;-85
2022/01/16 11:05:51;;;;;;;136.35;121.35;;;6.30;99.90;;;;;;4981036;28;20054;-85
2022/01/16 11:08:20;;;;;;;139.20;121.05;;;6.30;99.90;;;;;;5015749;28;20050;-85
2022/01/16 11:10:50;;;;;;;136.88;122.13;;;6.30;99.90;;;;;;4999786;28;20132;-85
2022/01/16 11:13:19;;;;;;;132.75;118.20;;;6.30;99.90;;;;;;5000060;28;20060;-86
2022/01/16 11:15:50;;;;;;;133.60;119.13;;;6.40;99.90;;;;;;4999946;28;20551;-85
2022/01/16 11:18:19;;;;;;;131.50;117.13;;;6.40;99.90;;;;;;5015789;28;20080;-85
2022/01/16 11:20:56;;;;;;;133.75;119.82;;;6.50;99.90;;;;;;5019362;28;20824;-85
2022/01/16 11:23:32;;;;;;;134.40;120.03;;;6.50;99.90;;;;;;5006807;28;20112;-84
2022/01/16 11:26:01;;;;;;;130.40;116.50;;;6.50;99.90;;;;;;5006468;28;20053;-84
2022/01/16 11:28:29;;;;;;;127.60;114.38;;;6.60;99.90;;;;;;5005335;28;20073;-85
2022/01/16 11:31:00;;;;;;;129.80;115.53;;;6.60;99.90;;;;;;5025548;28;20054;-85
2022/01/16 11:33:29;;;;;;;126.25;112.95;;;6.60;99.90;;;;;;5026040;28;20634;-86
2022/01/16 11:36:02;;;;;;;129.23;115.70;;;6.60;99.90;;;;;;5008123;28;20076;-86
2022/01/16 11:38:31;;;;;;;132.95;118.65;;;6.70;99.90;;;;;;5016938;28;20058;-85
2022/01/16 11:41:04;;;;;;;128.50;114.63;;;6.70;99.90;;;;;;5025133;28;20073;-85
2022/01/16 11:43:35;;;;;;;132.10;118.15;;;6.70;99.90;;;;;;5004885;28;20054;-85
2022/01/16 11:46:10;;;;;;;128.23;114.65;;;6.70;99.90;;;;;;5007086;28;20073;-85
2022/01/16 11:48:40;;;;;;;129.20;115.43;;;6.70;99.90;;;;;;4999101;28;20093;-85
2022/01/16 11:51:51;;;;;;;126.78;113.20;;;6.70;99.90;;;;;;5015315;28;20113;-84
2022/01/16 11:54:25;;;;;;;130.02;116.85;;;6.70;99.90;;;;;;4998866;28;20093;-85
2022/01/16 11:56:58;;;;;;;126.35;113.20;;;6.70;99.90;;;;;;4998458;28;20140;-83
2022/01/16 11:59:29;;;;;;;123.30;110.85;;;6.80;99.90;;;;;;5009401;28;20062;-83
2022/01/16 12:02:00;;;;;;;123.35;110.80;;;6.80;99.90;;;;;;5014898;28;20042;-84
2022/01/16 12:04:50;;;;;;;121.28;108.88;;;6.80;99.90;;;;;;5014794;28;20855;-84
2022/01/16 12:07:48;;;;;;;123.88;111.10;;;6.80;99.90;;;;;;4998088;28;20053;-84
2022/01/16 12:10:45;;;;;;;122.40;109.72;;;6.80;99.90;;;;;;4998235;28;20056;-84
2022/01/16 12:13:56;;;;;;;120.40;107.93;;;6.80;99.90;;;;;;4998121;28;20550;-84
2022/01/16 12:16:44;;;;;;;121.13;109.07;;;6.90;99.90;;;;;;4998661;28;20061;-84
2022/01/16 12:19:45;;;;;;;122.05;109.22;;;6.90;99.90;;;;;;4990996;28;20134;-83
2022/01/16 12:22:17;;;;;;;120.53;108.22;;;6.90;99.90;;;;;;5008717;28;20137;-85
2022/01/16 12:24:59;;;;;;;121.10;108.85;;;6.90;99.90;;;;;;5014868;28;20480;-85
2022/01/16 12:27:46;;;;;;;122.03;109.53;;;6.90;99.90;;;;;;5047306;28;20057;-85
2022/01/16 12:30:37;;;;;;;123.60;110.95;;;6.90;99.90;;;;;;4996876;28;20054;-81
2022/01/16 12:33:09;;;;;;;121.60;109.38;;;7.00;99.90;;;;;;5004257;28;20057;-84
2022/01/16 12:36:13;;;;;;;120.53;108.10;;;7.00;99.90;;;;;;5024250;28;20054;-83
2022/01/16 12:39:03;;;;;;;119.38;107.13;;;7.00;99.90;;;;;;5025482;28;20065;-84
2022/01/16 12:41:34;;;;;;;120.53;107.57;;;7.00;99.90;;;;;;5007226;28;20059;-83
2022/01/16 12:44:03;;;;;;;118.47;106.72;;;7.00;99.90;;;;;;5016484;28;20049;-86
2022/01/16 12:46:34;;;;;;;121.15;108.95;;;7.10;99.80;;;;;;5018231;28;20058;-87
2022/01/16 12:49:05;;;;;;;119.53;107.50;;;7.10;99.80;;;;;;5002133;28;20091;-87
2022/01/16 12:51:37;;;;;;;121.15;108.50;;;7.10;99.70;;;;;;5002027;28;20053;-86
2022/01/16 12:54:07;;;;;;;119.90;107.72;;;7.10;99.80;;;;;;5027841;28;20680;-84
2022/01/16 12:56:36;;;;;;;119.88;107.95;;;7.10;99.70;;;;;;5010257;28;20112;-83
2022/01/16 12:59:13;;;;;;;121.13;108.55;;;7.10;99.70;;;;;;5017035;28;20500;-84
2022/01/16 13:01:47;;;;;;;121.50;109.20;;;7.10;99.70;;;;;;5017163;28;20140;-85
2022/01/16 13:04:28;;;;;;;122.25;109.97;;;7.20;99.60;;;;;;5000653;28;20050;-83
2022/01/16 13:06:59;;;;;;;121.65;109.15;;;7.20;99.70;;;;;;5000488;28;20112;-83
2022/01/16 13:09:27;;;;;;;121.60;109.72;;;7.20;99.70;;;;;;5000753;28;20120;-84
2022/01/16 13:11:56;;;;;;;119.78;107.65;;;7.20;99.70;;;;;;5017012;28;20136;-84
2022/01/16 13:14:26;;;;;;;121.07;109.03;;;7.30;99.60;;;;;;4996963;28;20081;-84